Time;durP1;ratioP1;P1;durP2;ratioP2;P2;SDS_P1;SDS_P2;PMS_P1;PMS_P2;Temp;Humidity;BMP_temperature;BMP_pressure;BME280_temperature;BME280_humidity;BME280_pressure;Samples;Min_cycle;Max_cycle;Signal;HPM_P1;HPM_P2
2023/06/29 00:01:45;;;;;;;26.13;17.00;;;;;;;19.15;100.00;101534.75;5031273;28;20075;-78
2023/06/29 00:04:10;;;;;;;28.63;17.35;;;;;;;19.13;100.00;101535.00;5033646;28;20032;-78
2023/06/29 00:06:37;;;;;;;28.95;16.73;;;;;;;19.19;100.00;101541.34;5037984;28;20037;-77
2023/06/29 00:09:05;;;;;;;26.60;17.60;;;;;;;19.19;100.00;101542.16;5049025;28;20558;-78
2023/06/29 00:11:31;;;;;;;29.70;17.90;;;;;;;19.23;100.00;101546.06;5039030;28;20036;-78
2023/06/29 00:13:57;;;;;;;27.80;18.25;;;;;;;19.21;100.00;101540.06;5018835;28;20025;-78
2023/06/29 00:16:22;;;;;;;30.05;18.73;;;;;;;19.25;100.00;101543.91;5029706;28;20387;-78
2023/06/29 00:18:49;;;;;;;33.15;18.73;;;;;;;19.24;100.00;101533.34;5047673;28;20033;-77
2023/06/29 00:21:15;;;;;;;27.13;17.30;;;;;;;19.26;100.00;101537.47;5033358;28;20028;-78
2023/06/29 00:23:40;;;;;;;27.75;16.52;;;;;;;19.17;100.00;101522.66;5029585;28;20037;-78
2023/06/29 00:26:06;;;;;;;27.08;15.23;;;;;;;19.25;100.00;101530.38;5031058;28;20041;-78
2023/06/29 00:28:31;;;;;;;26.25;16.48;;;;;;;19.24;100.00;101534.16;5040843;28;20091;-78
2023/06/29 00:30:57;;;;;;;26.95;16.55;;;;;;;19.18;100.00;101521.59;5047312;28;20483;-78
2023/06/29 00:33:22;;;;;;;30.13;17.33;;;;;;;19.24;100.00;101523.34;5035250;28;20484;-78
2023/06/29 00:35:47;;;;;;;29.20;16.90;;;;;;;19.22;100.00;101519.25;5048414;28;20037;-78
2023/06/29 00:38:13;;;;;;;27.42;18.05;;;;;;;19.13;100.00;101513.38;5034003;28;20041;-78
2023/06/29 00:40:38;;;;;;;28.45;18.35;;;;;;;19.19;100.00;101519.72;5029334;28;20049;-78
2023/06/29 00:43:04;;;;;;;29.88;17.25;;;;;;;19.20;100.00;101524.91;5046413;28;20033;-78
2023/06/29 00:45:29;;;;;;;33.83;20.48;;;;;;;19.17;100.00;101525.34;5044582;28;20025;-78
2023/06/29 00:47:55;;;;;;;29.00;19.13;;;;;;;19.19;100.00;101519.72;5044200;28;20024;-78
2023/06/29 00:50:21;;;;;;;32.50;18.85;;;;;;;19.19;100.00;101519.72;5018743;28;20045;-78
2023/06/29 00:52:47;;;;;;;27.80;17.30;;;;;;;19.18;100.00;101510.78;5035861;28;20033;-78
2023/06/29 00:55:12;;;;;;;32.63;19.83;;;;;;;19.19;100.00;101514.31;5029410;28;20044;-78
2023/06/29 00:57:39;;;;;;;30.42;18.35;;;;;;;19.21;100.00;101512.19;5030384;28;20065;-78
2023/06/29 01:00:10;;;;;;;33.75;22.33;;;;;;;19.19;100.00;101511.59;5037099;28;20044;-78
2023/06/29 01:02:40;;;;;;;30.00;18.98;;;;;;;19.21;100.00;101506.78;5029337;28;20063;-78
2023/06/29 01:05:10;;;;;;;29.73;19.52;;;;;;;19.20;100.00;101502.41;5032491;28;20102;-77
2023/06/29 01:08:05;;;;;;;28.63;18.58;;;;;;;19.19;100.00;101501.59;5051642;28;20438;-78
2023/06/29 01:10:33;;;;;;;28.30;18.02;;;;;;;19.14;100.00;101493.38;5033402;28;20036;-77
2023/06/29 01:13:01;;;;;;;29.70;20.48;;;;;;;19.20;100.00;101503.28;5048216;28;20025;-78
2023/06/29 01:15:28;;;;;;;31.33;18.65;;;;;;;19.17;100.00;101495.59;5050671;28;20035;-78
2023/06/29 01:17:55;;;;;;;29.08;19.40;;;;;;;19.19;100.00;101503.50;5052002;28;20041;-77
2023/06/29 01:20:25;;;;;;;28.10;18.98;;;;;;;19.21;100.00;101501.38;5034257;28;20025;-78
2023/06/29 01:23:08;;;;;;;29.98;19.13;;;;;;;19.20;100.00;101495.16;5034254;28;20103;-77
2023/06/29 01:25:36;;;;;;;31.83;18.55;;;;;;;19.17;100.00;101486.69;5038102;28;20021;-78
2023/06/29 01:28:09;;;;;;;28.75;18.83;;;;;;;19.14;100.00;101493.38;5034353;28;20048;-78
2023/06/29 01:30:39;;;;;;;30.73;18.13;;;;;;;19.16;100.00;101491.28;5051867;28;20037;-77
2023/06/29 01:33:07;;;;;;;27.75;17.70;;;;;;;19.15;100.00;101496.91;5039678;28;20033;-78
2023/06/29 01:35:32;;;;;;;31.92;19.83;;;;;;;19.12;100.00;101483.88;5046028;28;20702;-78
2023/06/29 01:38:10;;;;;;;27.65;18.38;;;;;;;19.12;100.00;101484.69;5045929;28;20124;-78
2023/06/29 01:40:40;;;;;;;30.65;20.13;;;;;;;19.13;100.00;101486.34;5041356;28;20025;-78
2023/06/29 01:43:05;;;;;;;27.58;18.30;;;;;;;19.16;100.00;101483.16;5051564;28;20024;-77
2023/06/29 01:45:33;;;;;;;29.63;19.50;;;;;;;19.18;100.00;101485.63;5033236;28;20036;-78
2023/06/29 01:48:00;;;;;;;28.45;20.15;;;;;;;19.11;100.00;101472.22;5050355;28;20029;-78
2023/06/29 01:50:26;;;;;;;30.15;17.77;;;;;;;19.17;100.00;101481.28;5032652;28;20033;-78
2023/06/29 01:52:51;;;;;;;28.90;17.85;;;;;;;19.14;100.00;101473.63;5045602;28;20085;-78
2023/06/29 01:55:17;;;;;;;31.65;19.02;;;;;;;19.18;100.00;101475.63;5014485;28;20045;-77
2023/06/29 01:57:42;;;;;;;29.73;18.48;;;;;;;19.16;100.00;101476.94;5032334;28;20392;-77
2023/06/29 02:00:08;;;;;;;28.65;17.30;;;;;;;19.17;100.00;101476.69;5032368;28;20029;-78
2023/06/29 02:02:34;;;;;;;30.63;21.83;;;;;;;19.14;100.00;101469.03;5034384;28;20044;-77
2023/06/29 02:04:59;;;;;;;31.95;18.90;;;;;;;19.08;100.00;101453.78;5048139;28;20041;-78
2023/06/29 02:07:25;;;;;;;32.33;18.67;;;;;;;19.16;100.00;101471.53;5040915;28;20064;-78
2023/06/29 02:09:51;;;;;;;27.45;18.05;;;;;;;19.12;100.00;101464.94;5040749;28;20056;-78
2023/06/29 02:12:17;;;;;;;26.77;18.05;;;;;;;19.16;100.00;101472.34;5032150;28;20025;-78
2023/06/29 02:14:42;;;;;;;34.03;19.58;;;;;;;19.10;100.00;101456.25;5031359;28;20077;-77
2023/06/29 02:17:08;;;;;;;30.73;17.65;;;;;;;19.14;100.00;101463.63;5044130;28;20642;-78
2023/06/29 02:19:33;;;;;;;30.48;18.67;;;;;;;19.17;100.00;101471.28;5025044;28;20491;-78
2023/06/29 02:21:59;;;;;;;27.08;16.88;;;;;;;19.17;100.00;101463.16;5047127;28;20028;-77
2023/06/29 02:24:24;;;;;;;27.38;17.40;;;;;;;19.15;100.00;101462.59;5050933;28;20044;-78
2023/06/29 02:26:49;;;;;;;28.27;17.45;;;;;;;19.12;100.00;101463.06;5021988;28;20056;-78
2023/06/29 02:29:15;;;;;;;27.65;18.98;;;;;;;19.13;100.00;101455.78;5050627;28;20480;-78
2023/06/29 02:31:40;;;;;;;28.02;18.15;;;;;;;19.15;100.00;101462.59;5048405;28;20503;-77
2023/06/29 02:34:05;;;;;;;29.70;18.25;;;;;;;19.13;100.00;101459.31;5038030;28;20392;-78
2023/06/29 02:36:31;;;;;;;31.20;19.65;;;;;;;19.15;100.00;101449.06;5050539;28;20423;-78
2023/06/29 02:38:56;;;;;;;34.58;20.02;;;;;;;19.15;100.00;101451.78;5043563;28;20393;-77
2023/06/29 02:41:21;;;;;;;28.23;17.52;;;;;;;19.17;100.00;101443.41;5039553;28;20076;-78
2023/06/29 02:43:47;;;;;;;29.38;19.08;;;;;;;19.16;100.00;101448.00;5048599;28;20033;-78
2023/06/29 02:46:12;;;;;;;29.58;17.20;;;;;;;19.15;100.00;101445.53;5043509;28;20033;-78
2023/06/29 02:48:38;;;;;;;28.45;17.55;;;;;;;19.14;100.00;101444.72;5040491;28;20381;-77
2023/06/29 02:51:03;;;;;;;28.08;17.23;;;;;;;19.13;100.00;101439.56;5037377;28;20125;-78
2023/06/29 02:53:28;;;;;;;31.15;19.23;;;;;;;19.12;100.00;101443.31;5042158;28;20461;-78
2023/06/29 02:55:54;;;;;;;29.60;18.67;;;;;;;19.11;100.00;101445.19;5015077;28;20120;-77
2023/06/29 02:58:19;;;;;;;27.90;18.60;;;;;;;19.10;100.00;101440.00;5043221;28;20064;-77
2023/06/29 03:00:44;;;;;;;28.83;18.17;;;;;;;19.10;100.00;101438.16;5048579;28;20086;-77
2023/06/29 03:03:10;;;;;;;28.95;18.27;;;;;;;19.10;100.00;101431.91;5030844;28;20071;-77
2023/06/29 03:05:35;;;;;;;34.58;18.85;;;;;;;19.11;100.00;101431.66;5041570;28;20138;-77
2023/06/29 03:08:00;;;;;;;34.50;18.27;;;;;;;19.11;100.00;101430.84;5042580;28;20384;-78
2023/06/29 03:10:26;;;;;;;30.35;19.25;;;;;;;19.09;100.00;101439.19;5050168;28;20056;-78
2023/06/29 03:12:51;;;;;;;29.17;18.60;;;;;;;19.07;100.00;101432.38;5050013;28;20036;-78
2023/06/29 03:15:16;;;;;;;27.88;18.92;;;;;;;19.00;100.00;101427.13;5047551;28;20116;-78
2023/06/29 03:17:42;;;;;;;28.80;17.88;;;;;;;19.04;100.00;101439.09;5030739;28;20041;-78
2023/06/29 03:20:08;;;;;;;34.00;18.42;;;;;;;19.03;100.00;101432.88;5015070;28;20030;-77
2023/06/29 03:22:33;;;;;;;33.55;18.10;;;;;;;19.03;100.00;101438.28;5045277;28;20035;-77
2023/06/29 03:24:59;;;;;;;31.08;20.30;;;;;;;19.02;100.00;101430.38;5038016;28;20029;-78
2023/06/29 03:27:24;;;;;;;26.58;17.38;;;;;;;19.00;100.00;101419.84;5012198;28;20372;-77
2023/06/29 03:29:51;;;;;;;27.52;17.67;;;;;;;19.00;100.00;101424.41;5030626;28;20057;-78
2023/06/29 03:32:17;;;;;;;29.48;17.80;;;;;;;19.01;100.00;101426.06;5030362;28;20037;-78
2023/06/29 03:34:42;;;;;;;28.73;18.58;;;;;;;19.03;100.00;101423.94;5047562;28;20059;-78
2023/06/29 03:37:07;;;;;;;29.75;17.67;;;;;;;19.03;100.00;101423.94;5039737;28;20480;-78
2023/06/29 03:39:33;;;;;;;30.60;18.90;;;;;;;18.97;100.00;101420.31;5034876;28;20021;-77
2023/06/29 03:41:58;;;;;;;31.63;19.17;;;;;;;19.01;100.00;101417.94;5048159;28;20107;-78
2023/06/29 03:44:24;;;;;;;34.10;18.80;;;;;;;18.92;100.00;101404.00;5022513;28;20119;-78
2023/06/29 03:46:49;;;;;;;30.05;18.20;;;;;;;18.98;100.00;101413.84;5044998;28;21032;-77
2023/06/29 03:49:14;;;;;;;28.33;17.77;;;;;;;18.95;100.00;101406.22;5023591;28;20045;-78
2023/06/29 03:51:40;;;;;;;29.92;20.55;;;;;;;18.98;100.00;101407.63;5036395;28;20065;-78
2023/06/29 03:54:05;;;;;;;28.42;16.90;;;;;;;18.98;100.00;101411.13;5041028;28;20493;-78
2023/06/29 03:56:31;;;;;;;30.30;20.70;;;;;;;18.97;100.00;101406.78;5028567;28;20380;-78
2023/06/29 03:58:57;;;;;;;28.98;19.70;;;;;;;19.00;100.00;101414.44;5037352;28;20025;-78
2023/06/29 04:01:22;;;;;;;45.15;20.58;;;;;;;19.02;100.00;101406.06;5035416;28;20040;-78
2023/06/29 04:03:47;;;;;;;32.28;19.75;;;;;;;19.04;100.00;101403.94;5041465;28;20036;-78
2023/06/29 04:06:13;;;;;;;32.92;18.00;;;;;;;19.03;100.00;101407.72;5042483;28;20067;-78
2023/06/29 04:08:38;;;;;;;30.08;17.70;;;;;;;19.01;100.00;101399.03;5040707;28;20029;-78
2023/06/29 04:11:04;;;;;;;32.10;18.63;;;;;;;19.03;100.00;101411.25;5022881;28;20035;-78
2023/06/29 04:13:29;;;;;;;32.63;19.48;;;;;;;19.04;100.00;101409.34;5026131;28;20037;-78
2023/06/29 04:15:54;;;;;;;28.55;17.73;;;;;;;19.03;100.00;101403.13;5046128;28;20395;-78
2023/06/29 04:18:20;;;;;;;30.95;20.25;;;;;;;19.03;100.00;101402.31;5035412;28;20080;-78
2023/06/29 04:20:45;;;;;;;32.15;19.52;;;;;;;19.03;100.00;101405.00;5013124;28;20079;-78
2023/06/29 04:23:14;;;;;;;29.63;18.55;;;;;;;19.05;100.00;101398.31;5031289;28;20030;-78
2023/06/29 04:25:43;;;;;;;31.17;20.23;;;;;;;19.07;100.00;101399.94;5019709;28;20545;-78
2023/06/29 04:28:09;;;;;;;30.02;17.52;;;;;;;19.10;100.00;101397.59;5031500;28;20554;-78
2023/06/29 04:30:36;;;;;;;28.17;18.08;;;;;;;19.11;100.00;101395.72;5035574;28;20029;-77
2023/06/29 04:33:09;;;;;;;27.33;17.70;;;;;;;19.10;100.00;101394.91;5038938;28;20025;-78
2023/06/29 04:35:36;;;;;;;29.17;17.60;;;;;;;19.14;100.00;101397.94;5019015;28;20362;-78
2023/06/29 04:38:01;;;;;;;28.40;17.55;;;;;;;19.12;100.00;101391.94;5039527;28;20044;-78
2023/06/29 04:40:26;;;;;;;28.05;15.88;;;;;;;19.16;100.00;101391.22;5022297;28;20037;-78
2023/06/29 04:42:55;;;;;;;32.88;17.95;;;;;;;19.15;100.00;101389.59;5030385;28;20160;-78
2023/06/29 04:45:20;;;;;;;27.92;18.35;;;;;;;19.17;100.00;101387.44;5033580;28;20664;-78
2023/06/29 04:47:49;;;;;;;34.28;18.17;;;;;;;19.19;100.00;101390.72;5029258;28;20037;-78
2023/06/29 04:50:14;;;;;;;29.30;17.48;;;;;;;19.20;100.00;101388.84;5041369;28;20104;-78
2023/06/29 04:52:40;;;;;;;29.25;17.45;;;;;;;19.20;100.00;101386.13;5041623;28;20560;-78
2023/06/29 04:55:07;;;;;;;28.38;19.42;;;;;;;19.24;100.00;101387.31;5040532;28;20086;-78
2023/06/29 04:57:33;;;;;;;29.83;18.58;;;;;;;19.23;100.00;101382.94;5045154;28;20018;-78
2023/06/29 04:59:58;;;;;;;28.52;17.55;;;;;;;19.24;100.00;101382.72;5029200;28;20036;-77
2023/06/29 05:02:24;;;;;;;29.33;17.75;;;;;;;19.26;100.00;101383.31;5038843;28;20021;-78
2023/06/29 05:04:49;;;;;;;26.73;17.50;;;;;;;19.26;100.00;101385.19;5039813;28;20037;-78
2023/06/29 05:07:15;;;;;;;30.35;19.38;;;;;;;19.30;100.00;101389.03;5040798;28;20033;-78
2023/06/29 05:09:41;;;;;;;26.95;16.85;;;;;;;19.32;100.00;101388.81;5037833;28;20032;-77
2023/06/29 05:12:08;;;;;;;30.55;18.77;;;;;;;19.32;100.00;101384.22;5038863;28;20504;-78
2023/06/29 05:14:33;;;;;;;28.92;18.55;;;;;;;19.35;100.00;101389.13;5039540;28;20029;-78
2023/06/29 05:16:59;;;;;;;30.80;18.45;;;;;;;19.38;100.00;101385.94;5038519;28;20029;-78
2023/06/29 05:19:24;;;;;;;28.83;17.95;;;;;;;19.37;100.00;101381.59;5037711;28;20102;-77
2023/06/29 05:21:49;;;;;;;31.23;18.25;;;;;;;19.38;100.00;101385.13;5020653;28;20107;-78
2023/06/29 05:24:15;;;;;;;28.30;17.60;;;;;;;19.38;100.00;101382.41;5040107;28;20111;-77
2023/06/29 05:26:40;;;;;;;30.67;18.98;;;;;;;19.40;100.00;101375.72;5039751;28;20033;-78
2023/06/29 05:29:06;;;;;;;32.20;18.15;;;;;;;19.42;100.00;101372.78;5039122;28;20489;-77
2023/06/29 05:31:31;;;;;;;32.60;18.70;;;;;;;19.46;100.00;101379.31;5040979;28;20067;-78
2023/06/29 05:33:57;;;;;;;30.52;17.35;;;;;;;19.49;100.00;101379.69;5039397;28;20116;-78
2023/06/29 05:36:22;;;;;;;29.75;16.88;;;;;;;19.44;100.00;101368.75;5023943;28;20388;-78
2023/06/29 05:38:47;;;;;;;31.30;16.50;;;;;;;19.53;100.00;101373.78;5021470;28;20033;-78
2023/06/29 05:41:13;;;;;;;28.25;16.90;;;;;;;19.54;100.00;101376.22;5037587;28;20053;-78
2023/06/29 05:43:38;;;;;;;26.25;17.58;;;;;;;19.52;100.00;101369.41;5038044;28;20116;-78
2023/06/29 05:46:03;;;;;;;30.58;18.10;;;;;;;19.51;100.00;101376.72;5038022;28;20044;-77
2023/06/29 05:48:29;;;;;;;30.00;16.98;;;;;;;19.54;100.00;101370.81;5038775;28;20357;-78
2023/06/29 05:50:54;;;;;;;27.25;17.17;;;;;;;19.53;100.00;101369.19;5020027;28;20155;-81
2023/06/29 05:53:19;;;;;;;31.50;18.58;;;;;;;19.58;100.00;101365.75;5025633;28;20065;-78
2023/06/29 05:55:45;;;;;;;31.23;18.15;;;;;;;19.63;100.00;101371.25;5044336;28;20037;-77
2023/06/29 05:58:10;;;;;;;26.63;16.50;;;;;;;19.67;100.00;101369.72;5043163;28;20033;-78
2023/06/29 06:00:35;;;;;;;27.00;17.75;;;;;;;19.76;100.00;101376.38;5042876;28;20033;-77
2023/06/29 06:03:00;;;;;;;30.77;17.55;;;;;;;19.82;100.00;101374.56;5041711;28;20065;-77
2023/06/29 06:05:26;;;;;;;33.88;19.08;;;;;;;19.86;100.00;101371.13;5043921;28;20037;-78
2023/06/29 06:07:51;;;;;;;26.77;16.10;;;;;;;19.90;100.00;101371.44;5043784;28;20017;-78
2023/06/29 06:10:16;;;;;;;29.05;16.02;;;;;;;19.96;100.00;101375.88;5026677;28;20060;-77
2023/06/29 06:12:42;;;;;;;26.70;16.85;;;;;;;19.97;100.00;101365.88;5043160;28;20033;-77
2023/06/29 06:15:11;;;;;;;27.95;15.23;;;;;;;19.99;100.00;101382.69;5041410;28;20041;-78
2023/06/29 06:17:37;;;;;;;29.70;15.52;;;;;;;19.97;100.00;101363.19;5040070;28;20082;-77
2023/06/29 06:20:05;;;;;;;28.30;15.18;;;;;;;20.00;100.00;101374.31;5044523;28;20036;-78
2023/06/29 06:22:30;;;;;;;27.98;15.70;;;;;;;20.01;100.00;101367.81;5026560;28;20400;-77
2023/06/29 06:24:56;;;;;;;29.80;15.48;;;;;;;20.04;100.00;101377.34;5042622;28;20040;-77
2023/06/29 06:27:21;;;;;;;29.10;16.88;;;;;;;20.06;100.00;101372.50;5042203;28;20039;-78
2023/06/29 06:29:46;;;;;;;28.13;14.85;;;;;;;20.04;100.00;101369.22;5024917;28;20557;-78
2023/06/29 06:32:12;;;;;;;28.65;14.48;;;;;;;20.03;100.00;101363.00;5041541;28;20419;-78
2023/06/29 06:34:37;;;;;;;28.42;13.98;;;;;;;20.08;100.00;101370.38;5021053;28;20068;-78
2023/06/29 06:37:03;;;;;;;26.25;14.27;;;;;;;20.11;100.00;101376.13;5044052;28;20068;-77
2023/06/29 06:39:32;;;;;;;26.75;16.08;;;;;;;20.18;100.00;101370.53;5042048;28;20033;-78
2023/06/29 06:41:58;;;;;;;26.92;14.27;;;;;;;20.22;100.00;101371.66;5039133;28;20084;-78
2023/06/29 06:44:23;;;;;;;28.48;13.77;;;;;;;20.26;100.00;101380.13;5040112;28;20024;-78
2023/06/29 06:46:49;;;;;;;26.95;14.32;;;;;;;20.26;100.00;101370.13;5042717;28;20503;-73
2023/06/29 06:49:14;;;;;;;24.50;13.57;;;;;;;20.33;100.00;101378.91;5020898;28;20033;-78
2023/06/29 06:51:39;;;;;;;26.65;15.15;;;;;;;20.37;100.00;101373.78;5044869;28;20041;-78
2023/06/29 06:54:05;;;;;;;25.38;14.55;;;;;;;20.43;100.00;101377.38;5007318;28;20918;-78
2023/06/29 06:56:31;;;;;;;25.20;14.82;;;;;;;20.44;100.00;101376.34;5024019;28;20052;-78
2023/06/29 06:58:56;;;;;;;26.40;14.70;;;;;;;20.50;100.00;101380.75;5025752;28;20121;-77
2023/06/29 07:01:22;;;;;;;26.38;14.23;;;;;;;20.50;100.00;101365.28;5044098;28;20029;-78
2023/06/29 07:03:48;;;;;;;25.13;13.82;;;;;;;20.53;100.00;101374.81;5042064;28;20041;-77
2023/06/29 07:06:13;;;;;;;24.92;13.77;;;;;;;20.57;100.00;101390.38;5040055;28;20043;-74
2023/06/29 07:08:38;;;;;;;26.30;14.05;;;;;;;20.56;100.00;101382.47;5023758;28;20037;-77
2023/06/29 07:11:04;;;;;;;27.15;13.50;;;;;;;20.73;100.00;101385.16;5020546;28;20033;-77
2023/06/29 07:13:29;;;;;;;27.52;14.93;;;;;;;20.83;100.00;101381.72;5041337;28;20481;-78
2023/06/29 07:15:55;;;;;;;28.85;16.85;;;;;;;20.97;100.00;101383.81;5044839;28;20040;-78
2023/06/29 07:18:21;;;;;;;25.45;14.63;;;;;;;21.14;100.00;101372.91;5039597;28;20064;-78
2023/06/29 07:20:48;;;;;;;25.55;14.20;;;;;;;21.26;99.39;101372.75;5041951;28;20421;-78
2023/06/29 07:23:14;;;;;;;25.42;12.43;;;;;;;21.34;98.88;101376.91;5023834;28;20052;-78
2023/06/29 07:25:40;;;;;;;26.70;13.27;;;;;;;21.38;97.78;101375.34;5038816;28;20551;-78
2023/06/29 07:28:05;;;;;;;29.15;12.73;;;;;;;21.45;94.04;101371.34;5038693;28;20024;-77
2023/06/29 07:30:30;;;;;;;25.00;12.20;;;;;;;21.56;94.09;101363.28;5040844;28;20052;-78
2023/06/29 07:32:56;;;;;;;25.13;13.15;;;;;;;21.61;94.71;101369.63;5039398;28;20032;-79
2023/06/29 07:35:21;;;;;;;25.95;11.88;;;;;;;21.68;93.98;101372.09;5035668;28;20025;-76
2023/06/29 07:37:46;;;;;;;23.83;12.25;;;;;;;21.74;93.23;101371.06;5016676;28;20756;-78
2023/06/29 07:40:12;;;;;;;27.27;12.13;;;;;;;21.77;94.06;101367.00;5034288;28;21808;-76
2023/06/29 07:42:37;;;;;;;24.08;13.38;;;;;;;21.81;91.48;101371.66;5033929;28;20068;-77
2023/06/29 07:45:04;;;;;;;22.77;13.05;;;;;;;21.86;92.12;101371.69;5015552;28;20047;-80
2023/06/29 07:47:29;;;;;;;24.80;12.73;;;;;;;21.88;90.26;101366.03;5032848;28;20919;-78
2023/06/29 07:49:54;;;;;;;24.73;12.48;;;;;;;22.03;89.19;101365.31;5015703;28;20025;-78
2023/06/29 07:52:22;;;;;;;24.85;13.38;;;;;;;22.10;89.13;101360.47;5017361;28;20516;-74
2023/06/29 07:54:47;;;;;;;24.27;12.15;;;;;;;22.19;87.60;101364.38;5033522;28;20029;-76
2023/06/29 07:57:13;;;;;;;24.02;14.05;;;;;;;22.28;87.83;101362.78;5033959;28;20102;-75
2023/06/29 07:59:38;;;;;;;26.50;13.15;;;;;;;22.30;84.30;101355.19;5033668;28;20154;-77
2023/06/29 08:02:05;;;;;;;23.00;11.50;;;;;;;22.24;82.78;101358.97;5016040;28;20111;-78
2023/06/29 08:04:30;;;;;;;22.38;12.15;;;;;;;22.28;85.14;101360.06;5033800;28;20056;-78
2023/06/29 08:06:56;;;;;;;20.13;10.48;;;;;;;22.48;84.71;101364.81;5033572;28;20029;-79
2023/06/29 08:09:21;;;;;;;21.42;10.57;;;;;;;22.72;83.89;101348.06;5033288;28;20175;-79
2023/06/29 08:11:46;;;;;;;21.58;11.60;;;;;;;22.97;79.70;101359.06;5033220;28;20114;-77
2023/06/29 08:14:12;;;;;;;24.40;12.63;;;;;;;23.11;78.36;101355.84;5032959;28;20048;-75
2023/06/29 08:16:37;;;;;;;26.30;13.52;;;;;;;23.14;77.36;101349.88;5032721;28;20461;-74
2023/06/29 08:19:02;;;;;;;25.33;13.13;;;;;;;23.11;79.19;101340.34;5034085;28;20044;-74
2023/06/29 08:21:28;;;;;;;22.75;11.80;;;;;;;23.15;78.96;101343.31;5034119;28;20049;-74
2023/06/29 08:23:53;;;;;;;27.20;14.52;;;;;;;23.28;79.30;101342.00;5016685;28;20042;-75
2023/06/29 08:26:19;;;;;;;22.30;11.13;;;;;;;23.33;76.90;101342.00;5031730;28;20033;-74
2023/06/29 08:28:44;;;;;;;23.45;13.85;;;;;;;23.27;76.48;101341.19;5032683;28;20488;-77
2023/06/29 08:31:10;;;;;;;23.35;12.50;;;;;;;23.24;76.84;101349.03;5033834;28;20439;-77
2023/06/29 08:33:35;;;;;;;23.67;12.70;;;;;;;23.29;76.92;101335.44;5033819;28;20155;-77
2023/06/29 08:36:00;;;;;;;24.15;12.75;;;;;;;23.33;75.68;101345.53;5032492;28;21369;-76
2023/06/29 08:38:26;;;;;;;20.33;11.40;;;;;;;23.28;75.56;101345.53;5015598;28;20045;-76
2023/06/29 08:40:51;;;;;;;21.45;10.98;;;;;;;23.13;75.59;101340.03;5033623;28;20067;-74
2023/06/29 08:43:18;;;;;;;21.05;11.38;;;;;;;22.97;74.31;101344.63;5033256;28;20112;-77
2023/06/29 08:45:47;;;;;;;22.48;10.90;;;;;;;22.99;77.18;101350.63;5033538;28;20029;-76
2023/06/29 08:48:13;;;;;;;22.27;11.75;;;;;;;23.04;77.23;101349.84;5033725;28;20045;-79
2023/06/29 08:50:45;;;;;;;23.63;11.77;;;;;;;22.98;75.73;101349.00;5032804;28;20039;-78
2023/06/29 08:53:13;;;;;;;27.15;12.10;;;;;;;22.97;77.16;101350.06;5033936;28;20056;-77
2023/06/29 08:55:39;;;;;;;25.30;12.70;;;;;;;23.01;78.02;101342.22;5033819;28;20482;-78
2023/06/29 08:58:05;;;;;;;24.20;11.80;;;;;;;23.07;77.51;101341.94;5016400;28;20028;-77
2023/06/29 09:00:30;;;;;;;21.42;10.70;;;;;;;23.17;76.09;101344.69;5032798;28;20396;-79
2023/06/29 09:02:56;;;;;;;31.02;12.65;;;;;;;23.26;76.39;101344.16;5032299;28;20100;-80
2023/06/29 09:05:22;;;;;;;24.73;12.93;;;;;;;23.26;75.58;101342.25;5032715;28;20037;-78
2023/06/29 09:07:50;;;;;;;22.80;11.95;;;;;;;23.38;79.08;101342.00;5032658;28;20037;-77
2023/06/29 09:10:15;;;;;;;23.90;10.98;;;;;;;23.47;74.74;101343.09;5032538;28;20104;-79
2023/06/29 09:12:41;;;;;;;20.92;11.73;;;;;;;23.62;75.82;101339.56;5014047;28;20120;-73
2023/06/29 09:15:12;;;;;;;25.63;13.45;;;;;;;23.94;76.03;101338.50;5032721;28;20167;-76
2023/06/29 09:17:44;;;;;;;23.17;13.68;;;;;;;23.97;71.98;101332.47;5033183;28;21349;-75
2023/06/29 09:20:18;;;;;;;23.05;11.75;;;;;;;23.99;71.27;101333.03;5033329;28;20059;-78
2023/06/29 09:22:49;;;;;;;26.17;11.25;;;;;;;24.05;73.62;101338.22;5031076;28;20472;-76
2023/06/29 09:25:16;;;;;;;23.60;11.88;;;;;;;24.11;70.31;101325.38;5033264;28;20380;-78
2023/06/29 09:27:41;;;;;;;22.83;12.18;;;;;;;24.19;69.54;101324.81;5036884;28;20021;-77
2023/06/29 09:30:08;;;;;;;26.75;12.95;;;;;;;24.20;69.55;101331.09;5035186;28;20046;-79
2023/06/29 09:32:38;;;;;;;23.05;10.63;;;;;;;24.27;69.15;101334.34;5038378;28;20029;-78
2023/06/29 09:35:08;;;;;;;22.38;11.18;;;;;;;24.41;69.79;101327.19;5036744;28;20032;-78
2023/06/29 09:37:34;;;;;;;22.83;11.68;;;;;;;24.55;72.88;101329.34;5036787;28;20541;-78
2023/06/29 09:39:59;;;;;;;23.48;11.57;;;;;;;24.64;67.29;101333.16;5037255;28;20037;-77
2023/06/29 09:42:31;;;;;;;21.95;9.93;;;;;;;24.53;68.06;101335.09;5033233;28;20084;-79
2023/06/29 09:45:04;;;;;;;;;;;;;;;24.75;71.38;101331.19;5018616;28;20490;-75
2023/06/29 09:47:30;;;;;;;19.55;9.95;;;;;;;24.65;66.78;101330.16;5035570;28;20010;-77
2023/06/29 09:49:56;;;;;;;20.55;10.88;;;;;;;24.52;64.80;101333.47;5035149;28;20025;-77
2023/06/29 09:52:21;;;;;;;19.67;9.27;;;;;;;24.45;65.04;101328.31;5037711;28;20044;-78
2023/06/29 09:54:49;;;;;;;22.25;10.63;;;;;;;24.27;65.94;101332.44;5042024;28;20036;-78
2023/06/29 09:57:15;;;;;;;23.10;11.13;;;;;;;24.14;67.14;101332.19;5035328;28;20400;-77
2023/06/29 09:59:44;;;;;;;21.65;10.63;;;;;;;23.95;66.87;101329.25;5040764;28;20048;-78
2023/06/29 10:02:09;;;;;;;22.60;10.38;;;;;;;23.81;68.01;101328.97;5045275;28;20124;-78
2023/06/29 10:04:35;;;;;;;21.35;11.40;;;;;;;23.65;68.30;101330.84;5045687;28;20940;-78
2023/06/29 10:07:19;;;;;;;21.63;11.32;;;;;;;23.60;71.44;101325.41;5042181;28;20041;-77
2023/06/29 10:09:47;;;;;;;22.80;11.60;;;;;;;23.50;70.19;101331.69;5040341;28;20567;-78
2023/06/29 10:12:14;;;;;;;22.80;10.35;;;;;;;23.39;70.29;101336.28;5043317;28;20036;-78
2023/06/29 10:14:43;;;;;;;23.67;11.13;;;;;;;23.34;71.51;101333.56;5044188;28;20074;-78
2023/06/29 10:17:30;;;;;;;23.95;12.63;;;;;;;23.28;73.05;101325.66;5044471;28;20108;-77
2023/06/29 10:19:59;;;;;;;21.92;10.63;;;;;;;23.29;71.83;101338.16;5041889;28;20041;-77
2023/06/29 10:22:27;;;;;;;20.20;10.35;;;;;;;23.21;71.60;101328.63;5036461;28;20029;-77
2023/06/29 10:24:52;;;;;;;21.63;11.55;;;;;;;23.26;72.99;101328.63;5036655;28;20115;-78
2023/06/29 10:27:23;;;;;;;24.77;11.67;;;;;;;23.30;72.91;101323.50;5023277;28;20159;-78
2023/06/29 10:29:50;;;;;;;19.67;10.90;;;;;;;23.45;74.20;101331.69;5040937;28;20357;-78
2023/06/29 10:32:35;;;;;;;24.38;10.38;;;;;;;23.52;71.15;101328.66;5036371;28;20037;-76
2023/06/29 10:35:12;;;;;;;25.73;11.07;;;;;;;23.48;70.19;101317.50;5041753;28;20112;-78
2023/06/29 10:37:41;;;;;;;20.60;11.07;;;;;;;23.52;71.37;101326.75;5039881;28;20037;-77
2023/06/29 10:40:18;;;;;;;21.40;10.40;;;;;;;23.62;71.99;101334.13;5037683;28;20065;-77
2023/06/29 10:42:43;;;;;;;23.35;10.43;;;;;;;23.70;71.03;101336.28;5042636;28;20049;-76
2023/06/29 10:45:17;;;;;;;25.50;12.60;;;;;;;23.73;70.29;101330.31;5039968;28;20495;-77
2023/06/29 10:47:43;;;;;;;23.33;10.88;;;;;;;23.71;71.75;101323.50;5042558;28;20622;-77
2023/06/29 10:50:09;;;;;;;24.30;13.02;;;;;;;23.74;71.96;101328.44;5044418;28;20025;-77
2023/06/29 10:52:35;;;;;;;23.02;12.45;;;;;;;23.60;70.07;101322.69;5034536;28;20037;-77
2023/06/29 10:55:18;;;;;;;25.20;12.35;;;;;;;23.53;70.17;101325.69;5045760;28;20387;-77
2023/06/29 10:57:52;;;;;;;22.73;11.43;;;;;;;23.43;70.85;101320.25;5037014;28;20030;-78
2023/06/29 11:00:17;;;;;;;23.17;12.48;;;;;;;23.36;71.39;101315.03;5042890;28;20986;-78
2023/06/29 11:02:44;;;;;;;26.67;14.05;;;;;;;23.25;72.63;101309.88;5045885;28;20032;-76